Time;durP1;ratioP1;P1;durP2;ratioP2;P2;SDS_P1;SDS_P2;PMS_P1;PMS_P2;Temp;Humidity;BMP_temperature;BMP_pressure;BME280_temperature;BME280_humidity;BME280_pressure;Samples;Min_cycle;Max_cycle;Signal;HPM_P1;HPM_P2
2022/08/10 00:00:20;;;;;;;3.20;2.58;;;12.20;99.90;;;;;;5053283;28;20048;-26
2022/08/10 00:02:57;;;;;;;7.82;3.75;;;12.20;99.90;;;;;;5054374;28;20044;-26
2022/08/10 00:05:24;;;;;;;7.47;3.20;;;12.20;1.00;;;;;;5053126;28;20045;-26
2022/08/10 00:07:50;;;;;;;15.75;4.25;;;12.20;99.90;;;;;;5052439;28;20048;-26
2022/08/10 00:10:18;;;;;;;30.65;4.85;;;12.10;1.00;;;;;;5052967;28;20523;-27
2022/08/10 00:12:44;;;;;;;16.73;3.85;;;12.10;1.00;;;;;;5051091;28;20041;-26
2022/08/10 00:15:12;;;;;;;4.32;2.58;;;12.00;1.00;;;;;;5052391;28;20433;-26
2022/08/10 00:17:38;;;;;;;2.17;1.90;;;12.00;1.00;;;;;;5050584;28;20410;-27
2022/08/10 00:20:05;;;;;;;2.05;1.85;;;11.80;1.00;;;;;;5052124;28;20036;-26
2022/08/10 00:22:30;;;;;;;1.40;1.23;;;11.70;1.00;;;;;;5053108;28;20056;-26
2022/08/10 00:24:56;;;;;;;2.25;1.95;;;11.60;1.00;;;;;;5053158;28;20045;-26
2022/08/10 00:27:27;;;;;;;1.77;0.95;;;11.60;1.00;;;;;;5053694;28;20084;-27
2022/08/10 00:29:53;;;;;;;2.20;1.08;;;11.60;1.00;;;;;;5051739;28;20047;-26
2022/08/10 00:32:19;;;;;;;4.57;3.72;;;11.50;1.00;;;;;;5053736;28;20048;-26
2022/08/10 00:34:45;;;;;;;5.78;3.83;;;11.40;1.00;;;;;;5052785;28;20044;-26
2022/08/10 00:37:12;;;;;;;21.13;11.18;;;11.50;1.00;;;;;;5054326;28;20056;-26
2022/08/10 00:39:38;;;;;;;5.75;3.13;;;11.60;1.00;;;;;;5053334;28;20041;-26
2022/08/10 00:42:09;;;;;;;3.10;1.58;;;11.80;1.00;;;;;;5051673;28;20049;-26
2022/08/10 00:44:38;;;;;;;6.55;2.10;;;11.60;1.00;;;;;;5051080;28;20039;-26
2022/08/10 00:47:05;;;;;;;5.93;3.50;;;11.50;1.00;;;;;;5053081;28;20041;-26
2022/08/10 00:49:30;;;;;;;4.80;3.65;;;11.40;1.00;;;;;;5053271;28;20051;-27
2022/08/10 00:51:56;;;;;;;989.40;29.13;;;11.30;1.00;;;;;;5052505;28;20045;-26
2022/08/10 00:54:22;;;;;;;84.97;9.65;;;11.30;1.00;;;;;;5051625;28;20055;-26
2022/08/10 00:56:48;;;;;;;13.85;6.50;;;11.10;1.00;;;;;;5053500;28;20083;-26
2022/08/10 00:59:13;;;;;;;10.48;5.75;;;11.00;1.00;;;;;;5052842;28;20072;-28
2022/08/10 01:01:39;;;;;;;38.63;7.65;;;10.90;1.00;;;;;;5052616;28;20146;-28
2022/08/10 01:04:06;;;;;;;7.90;5.72;;;10.90;1.00;;;;;;5051573;28;20055;-28
2022/08/10 01:07:13;;;;;;;10.32;4.90;;;11.00;1.00;;;;;;5052034;28;20517;-28
2022/08/10 01:09:47;;;;;;;6.63;4.53;;;11.00;1.50;;;;;;5051401;28;20033;-28
2022/08/10 01:12:31;;;;;;;6.53;5.82;;;11.00;1.00;;;;;;5050943;28;20065;-28
2022/08/10 01:15:12;;;;;;;7.40;5.13;;;11.00;29.90;;;;;;5050886;28;20060;-27
2022/08/10 01:18:25;;;;;;;10.77;3.78;;;11.20;53.40;;;;;;5052734;28;20106;-28
2022/08/10 01:21:20;;;;;;;11.20;3.58;;;11.20;92.40;;;;;;5009628;28;20112;-27
2022/08/10 01:24:06;;;;;;;379.90;9.45;;;11.30;99.90;;;;;;5050670;28;20049;-28
2022/08/10 01:27:02;;;;;;;75.20;3.90;;;11.20;99.90;;;;;;5052218;28;20530;-28
2022/08/10 01:29:46;;;;;;;2.50;1.70;;;11.20;99.90;;;;;;5053553;28;20045;-28
2022/08/10 01:32:13;;;;;;;7.63;2.90;;;11.10;95.80;;;;;;5052527;28;20151;-28
2022/08/10 01:34:53;;;;;;;7.13;3.83;;;11.10;99.90;;;;;;5051923;28;20045;-28
2022/08/10 01:37:25;;;;;;;8.88;4.15;;;11.10;99.90;;;;;;5052488;28;20052;-27
2022/08/10 01:39:56;;;;;;;11.05;5.00;;;11.10;99.90;;;;;;5054646;28;20406;-28
2022/08/10 01:42:23;;;;;;;110.88;6.10;;;11.10;99.90;;;;;;5055134;28;20049;-27
2022/08/10 01:44:54;;;;;;;40.80;3.78;;;11.20;99.90;;;;;;5055644;28;20043;-27
2022/08/10 01:50:19;;;;;;;5.07;2.63;;;11.30;99.90;;;;;;5056123;28;20049;-28
2022/08/10 01:52:47;;;;;;;3.30;1.40;;;11.30;99.90;;;;;;5054647;28;20679;-28
2022/08/10 01:55:14;;;;;;;3.85;1.77;;;11.30;99.90;;;;;;5054024;28;20124;-27
2022/08/10 01:57:41;;;;;;;6.57;2.13;;;11.30;99.90;;;;;;5055955;28;20044;-27
2022/08/10 02:00:12;;;;;;;6.18;2.85;;;11.20;99.90;;;;;;5056619;28;20092;-28
2022/08/10 02:02:41;;;;;;;8.02;3.55;;;11.10;99.90;;;;;;5057439;28;20049;-28
2022/08/10 02:05:08;;;;;;;6.25;3.17;;;11.00;99.90;;;;;;5053474;28;20067;-28
2022/08/10 02:07:36;;;;;;;5.70;3.75;;;11.00;99.90;;;;;;5052453;28;20045;-28
2022/08/10 02:10:07;;;;;;;10.73;6.00;;;10.90;99.90;;;;;;5036536;28;20049;-27
2022/08/10 02:12:34;;;;;;;12.57;6.20;;;10.90;99.90;;;;;;5035789;28;20056;-27
2022/08/10 02:15:03;;;;;;;9.52;5.15;;;10.90;99.90;;;;;;5045171;28;20112;-27
2022/08/10 02:17:36;;;;;;;15.30;8.20;;;10.80;99.90;;;;;;5052648;28;20555;-27
2022/08/10 02:20:07;;;;;;;14.90;8.35;;;10.90;99.90;;;;;;5055716;28;20052;-27
2022/08/10 02:22:34;;;;;;;15.10;7.38;;;10.90;99.90;;;;;;5055538;28;20049;-28
2022/08/10 02:25:01;;;;;;;15.63;7.45;;;10.90;99.90;;;;;;5056189;28;20037;-28
2022/08/10 02:27:28;;;;;;;13.75;7.75;;;10.80;99.90;;;;;;5053994;28;20503;-28
2022/08/10 02:29:54;;;;;;;10.73;6.28;;;10.80;99.90;;;;;;5053846;28;20052;-27
2022/08/10 02:32:24;;;;;;;15.05;6.15;;;10.70;99.90;;;;;;5055938;28;20544;-28
2022/08/10 02:34:51;;;;;;;9.80;5.00;;;10.70;99.90;;;;;;5055135;28;20045;-27
2022/08/10 02:37:23;;;;;;;10.27;5.60;;;10.60;99.90;;;;;;5053214;28;20103;-27
2022/08/10 02:39:49;;;;;;;12.20;5.80;;;10.60;99.90;;;;;;5055235;28;20490;-28
2022/08/10 02:42:23;;;;;;;13.45;6.65;;;10.60;99.90;;;;;;5054641;28;20079;-28
2022/08/10 02:45:00;;;;;;;11.68;6.13;;;10.50;99.90;;;;;;5054608;28;20040;-27
2022/08/10 02:47:39;;;;;;;16.42;7.68;;;10.50;99.90;;;;;;5053740;28;20052;-28
2022/08/10 02:50:08;;;;;;;19.88;8.00;;;10.50;1.00;;;;;;5046214;28;20044;-28
2022/08/10 02:52:45;;;;;;;36.95;11.45;;;10.40;1.00;;;;;;5054910;28;20057;-27
2022/08/10 02:55:25;;;;;;;146.25;14.93;;;10.30;1.00;;;;;;5053434;28;20044;-27
2022/08/10 02:57:55;;;;;;;25.42;10.02;;;10.30;1.00;;;;;;5056157;28;20048;-28
2022/08/10 03:00:23;;;;;;;15.95;7.53;;;10.40;1.00;;;;;;5055475;28;20053;-27
2022/08/10 03:02:51;;;;;;;13.48;7.70;;;10.40;1.00;;;;;;5054211;28;20395;-27
2022/08/10 03:05:20;;;;;;;30.30;14.43;;;10.40;1.00;;;;;;5053385;28;20049;-27
2022/08/10 03:07:58;;;;;;;29.13;15.15;;;10.50;1.00;;;;;;5054654;28;20057;-27
2022/08/10 03:10:28;;;;;;;42.42;20.83;;;10.70;1.00;;;;;;5035469;28;20057;-27
2022/08/10 03:12:59;;;;;;;70.30;27.15;;;11.00;99.90;;;;;;5065773;28;20090;-27
2022/08/10 03:15:27;;;;;;;58.10;27.05;;;11.40;99.90;;;;;;5052711;28;20094;-27
2022/08/10 03:17:55;;;;;;;56.28;27.17;;;11.60;99.90;;;;;;5053186;28;20053;-28
2022/08/10 03:20:22;;;;;;;69.53;30.20;;;12.00;99.90;;;;;;5054107;28;20522;-28
2022/08/10 03:22:51;;;;;;;66.95;32.08;;;12.30;99.90;;;;;;5054299;28;20088;-28
2022/08/10 03:25:21;;;;;;;71.47;32.17;;;12.50;99.90;;;;;;5053900;28;20049;-27
2022/08/10 03:27:48;;;;;;;61.65;30.27;;;12.80;99.90;;;;;;5054260;28;20124;-27
2022/08/10 03:30:14;;;;;;;68.72;31.65;;;13.00;99.90;;;;;;5054314;28;20056;-28
2022/08/10 03:32:41;;;;;;;68.43;31.90;;;13.10;99.90;;;;;;5054794;28;20084;-27
2022/08/10 03:35:08;;;;;;;59.08;29.60;;;13.30;99.90;;;;;;5052867;28;20049;-27
2022/08/10 03:37:35;;;;;;;61.75;31.35;;;13.50;99.90;;;;;;5053784;28;20395;-27
2022/08/10 03:40:00;;;;;;;67.57;33.40;;;13.50;99.90;;;;;;5035472;28;20419;-27
2022/08/10 03:42:27;;;;;;;70.40;33.65;;;13.70;99.90;;;;;;5035344;28;20128;-27
2022/08/10 03:44:54;;;;;;;62.35;32.03;;;13.80;99.90;;;;;;5042974;28;20036;-26
2022/08/10 03:47:22;;;;;;;62.88;31.42;;;13.80;99.90;;;;;;5053549;28;20530;-27
2022/08/10 03:49:49;;;;;;;68.68;32.65;;;13.70;99.90;;;;;;5052849;28;20052;-27
2022/08/10 03:52:17;;;;;;;71.40;33.03;;;13.60;99.90;;;;;;5053803;28;20045;-27
2022/08/10 03:54:44;;;;;;;80.30;33.30;;;13.70;99.90;;;;;;5052682;28;20490;-27
2022/08/10 03:57:10;;;;;;;79.63;34.22;;;13.80;99.90;;;;;;5032148;28;20045;-28
2022/08/10 03:59:37;;;;;;;91.72;32.42;;;13.70;99.90;;;;;;5033534;28;20077;-28
2022/08/10 04:02:05;;;;;;;58.05;27.27;;;13.50;99.90;;;;;;5067506;28;20049;-26
2022/08/10 04:04:31;;;;;;;47.72;25.15;;;13.30;99.90;;;;;;5054903;28;20045;-27
2022/08/10 04:06:58;;;;;;;53.50;26.50;;;13.30;99.90;;;;;;5053177;28;20048;-27
2022/08/10 04:09:29;;;;;;;60.90;25.58;;;13.10;99.90;;;;;;5052548;28;20048;-27
2022/08/10 04:11:55;;;;;;;51.67;27.05;;;13.40;99.90;;;;;;5052598;28;20074;-27
2022/08/10 04:14:21;;;;;;;49.42;26.48;;;13.50;99.90;;;;;;5054076;28;20049;-27
2022/08/10 04:16:46;;;;;;;49.58;25.77;;;13.50;99.90;;;;;;5051890;28;20171;-27
2022/08/10 04:19:16;;;;;;;65.70;29.35;;;13.60;99.90;;;;;;5052374;28;20190;-27
2022/08/10 04:21:45;;;;;;;48.83;25.65;;;13.80;99.90;;;;;;5045460;28;20499;-27
2022/08/10 04:24:17;;;;;;;50.08;25.67;;;13.90;99.90;;;;;;5054792;28;20114;-26
2022/08/10 04:26:44;;;;;;;55.60;26.65;;;13.90;99.90;;;;;;5053295;28;20080;-27
2022/08/10 04:29:10;;;;;;;48.70;25.38;;;14.10;99.90;;;;;;5052984;28;20056;-26
2022/08/10 04:31:36;;;;;;;45.05;24.45;;;14.20;99.90;;;;;;5052587;28;20049;-27
2022/08/10 04:34:03;;;;;;;54.05;25.77;;;14.00;99.90;;;;;;5053762;28;20045;-27
2022/08/10 04:36:29;;;;;;;40.42;23.27;;;14.20;99.90;;;;;;5053777;28;20053;-26
2022/08/10 04:38:55;;;;;;;42.25;23.13;;;14.10;99.90;;;;;;5051603;28;20045;-27
2022/08/10 04:41:22;;;;;;;46.78;25.65;;;14.30;99.90;;;;;;5052046;28;20099;-26
2022/08/10 04:43:48;;;;;;;43.90;23.83;;;14.20;99.90;;;;;;5035122;28;20063;-27
2022/08/10 04:46:13;;;;;;;44.22;23.98;;;14.20;99.90;;;;;;5052409;28;20136;-27
2022/08/10 04:48:39;;;;;;;43.30;22.95;;;14.20;99.90;;;;;;5052481;28;20079;-27
2022/08/10 04:51:05;;;;;;;40.05;22.48;;;14.10;99.90;;;;;;5050810;28;20099;-27
2022/08/10 04:53:31;;;;;;;44.42;23.20;;;14.20;99.90;;;;;;5050236;28;20045;-26
2022/08/10 04:55:57;;;;;;;36.05;21.63;;;14.30;99.90;;;;;;5053096;28;20041;-27
2022/08/10 04:58:23;;;;;;;39.08;22.73;;;14.30;99.90;;;;;;5053515;28;20136;-27
2022/08/10 05:00:48;;;;;;;39.47;22.10;;;14.40;99.90;;;;;;5051402;28;20075;-27
2022/08/10 05:03:14;;;;;;;36.55;21.10;;;14.60;99.90;;;;;;5051708;28;20437;-27
2022/08/10 05:05:40;;;;;;;33.88;20.15;;;14.50;99.90;;;;;;5053502;28;20074;-27
2022/08/10 05:08:05;;;;;;;33.25;20.08;;;14.60;99.90;;;;;;5053467;28;20041;-28
2022/08/10 05:10:31;;;;;;;32.63;19.15;;;14.60;99.90;;;;;;5050084;28;20128;-27
2022/08/10 05:12:57;;;;;;;31.83;19.73;;;14.80;99.90;;;;;;5050939;28;20484;-27
2022/08/10 05:15:23;;;;;;;32.38;19.83;;;15.00;99.90;;;;;;5054309;28;20044;-26
2022/08/10 05:17:49;;;;;;;33.50;19.25;;;15.10;99.90;;;;;;5055085;28;20072;-27
2022/08/10 05:20:15;;;;;;;33.88;20.42;;;15.00;99.90;;;;;;5055696;28;20123;-28
2022/08/10 05:22:44;;;;;;;28.88;18.63;;;15.10;99.90;;;;;;5055391;28;20242;-28
2022/08/10 05:25:13;;;;;;;32.30;16.27;;;15.40;99.90;;;;;;5056928;28;20394;-28
2022/08/10 05:27:40;;;;;;;29.38;16.92;;;15.40;99.90;;;;;;5055862;28;20127;-27
2022/08/10 05:30:07;;;;;;;21.50;14.80;;;15.50;99.90;;;;;;5054998;28;20053;-27
2022/08/10 05:32:35;;;;;;;23.67;15.65;;;15.30;99.90;;;;;;5055944;28;20495;-27
2022/08/10 05:35:01;;;;;;;23.73;15.52;;;15.50;99.90;;;;;;5056264;28;20449;-27
2022/08/10 05:37:30;;;;;;;22.88;15.02;;;15.60;99.90;;;;;;5057629;28;20158;-27
2022/08/10 05:39:56;;;;;;;19.38;14.05;;;15.80;99.90;;;;;;5057601;28;20045;-28
2022/08/10 05:42:27;;;;;;;19.38;14.82;;;15.80;99.90;;;;;;5055941;28;20115;-27
2022/08/10 05:44:52;;;;;;;24.15;14.32;;;15.80;99.90;;;;;;5055022;28;20041;-27
2022/08/10 05:47:18;;;;;;;20.88;13.93;;;15.80;99.90;;;;;;5056858;28;20450;-27
2022/08/10 05:49:47;;;;;;;17.15;12.60;;;16.00;99.90;;;;;;5056113;28;20052;-27
2022/08/10 05:52:13;;;;;;;16.55;12.10;;;16.00;99.90;;;;;;5055834;28;20072;-28
2022/08/10 05:54:40;;;;;;;21.75;12.85;;;16.10;99.90;;;;;;5053676;28;20068;-27
2022/08/10 05:57:06;;;;;;;18.33;13.90;;;16.20;99.90;;;;;;5056757;28;20056;-28
2022/08/10 05:59:33;;;;;;;13.68;11.20;;;16.40;99.90;;;;;;5055905;28;20044;-27
2022/08/10 06:02:03;;;;;;;17.42;11.75;;;16.40;99.90;;;;;;5055955;28;20510;-27
2022/08/10 06:04:36;;;;;;;17.58;10.77;;;16.60;99.90;;;;;;5054754;28;20072;-28
2022/08/10 06:07:04;;;;;;;14.95;9.80;;;16.60;99.90;;;;;;5055991;28;20430;-28
2022/08/10 06:09:32;;;;;;;15.40;11.00;;;16.90;99.90;;;;;;5055509;28;20138;-27
2022/08/10 06:12:00;;;;;;;13.90;9.65;;;17.10;99.90;;;;;;5072193;28;20053;-27
2022/08/10 06:17:12;;;;;;;12.80;8.65;;;17.20;99.90;;;;;;5055827;28;20060;-27
2022/08/10 06:19:40;;;;;;;12.18;9.00;;;17.30;99.90;;;;;;5055834;28;20037;-27
2022/08/10 06:22:07;;;;;;;12.55;8.10;;;17.40;99.90;;;;;;5056275;28;20041;-27
2022/08/10 06:24:36;;;;;;;13.30;7.05;;;17.60;99.90;;;;;;5053481;28;22116;-27
2022/08/10 06:27:03;;;;;;;12.02;7.15;;;17.60;99.90;;;;;;5056104;28;20058;-27
2022/08/10 06:29:32;;;;;;;11.77;7.60;;;17.70;99.90;;;;;;5055079;28;20049;-27
2022/08/10 06:31:59;;;;;;;8.77;6.70;;;17.80;99.90;;;;;;5054875;28;20533;-28
2022/08/10 06:34:36;;;;;;;9.07;6.28;;;17.90;99.90;;;;;;5055293;28;20081;-28
2022/08/10 06:37:04;;;;;;;9.38;6.13;;;18.00;99.90;;;;;;5054992;28;20044;-27
2022/08/10 06:39:30;;;;;;;8.73;6.35;;;18.10;47.70;;;;;;5053717;28;20045;-27
2022/08/10 06:42:09;;;;;;;15.90;11.60;;;18.10;1.00;;;;;;5055899;28;20044;-27
2022/08/10 06:44:43;;;;;;;13.43;10.00;;;18.30;1.00;;;;;;5055054;28;20037;-27
2022/08/10 06:47:11;;;;;;;7.95;5.60;;;18.30;1.00;;;;;;5054662;28;20049;-27
2022/08/10 06:49:37;;;;;;;9.75;5.60;;;18.40;1.00;;;;;;5052437;28;20090;-27
2022/08/10 06:52:06;;;;;;;6.95;5.35;;;18.40;1.00;;;;;;5051988;28;20120;-28
2022/08/10 06:54:33;;;;;;;9.82;5.15;;;18.50;99.90;;;;;;5056141;28;20071;-27
2022/08/10 06:57:00;;;;;;;10.43;5.85;;;18.60;99.90;;;;;;5037868;28;20044;-27
2022/08/10 06:59:42;;;;;;;9.00;4.80;;;18.70;99.90;;;;;;5054606;28;20491;-27
2022/08/10 07:02:14;;;;;;;6.40;4.72;;;18.80;99.90;;;;;;5055544;28;20056;-28
2022/08/10 07:04:45;;;;;;;7.80;5.25;;;18.80;88.00;;;;;;5055515;28;20084;-27
2022/08/10 07:07:17;;;;;;;7.95;4.90;;;18.90;13.20;;;;;;5055457;28;20053;-28
2022/08/10 07:09:44;;;;;;;5.55;4.28;;;19.00;1.00;;;;;;5055320;28;20047;-27
2022/08/10 07:12:12;;;;;;;7.20;4.60;;;19.00;1.00;;;;;;5054130;28;20087;-27
2022/08/10 07:14:43;;;;;;;8.80;4.50;;;19.20;99.90;;;;;;5053570;28;20081;-28
2022/08/10 07:17:16;;;;;;;8.75;3.28;;;19.30;99.90;;;;;;5055321;28;20080;-29
2022/08/10 07:19:45;;;;;;;6.43;3.60;;;19.40;99.90;;;;;;5055172;28;20049;-27
2022/08/10 07:22:14;;;;;;;5.38;3.75;;;19.50;97.70;;;;;;5054729;28;20496;-28
2022/08/10 07:24:44;;;;;;;8.60;3.90;;;19.60;7.70;;;;;;5055058;28;20041;-28
2022/08/10 07:27:11;;;;;;;7.15;3.67;;;19.70;1.00;;;;;;5055352;28;20045;-27
2022/08/10 07:29:40;;;;;;;9.65;4.47;;;19.70;1.00;;;;;;5054003;28;20179;-27
2022/08/10 07:32:07;;;;;;;5.97;3.83;;;19.70;99.90;;;;;;5053258;28;20102;-27
2022/08/10 07:34:35;;;;;;;7.50;3.25;;;19.80;99.90;;;;;;5053713;28;20037;-27
2022/08/10 07:37:03;;;;;;;6.93;3.20;;;19.90;99.90;;;;;;5036185;28;20048;-27
2022/08/10 07:39:32;;;;;;;6.55;2.85;;;19.90;99.90;;;;;;5053639;28;20046;-27
2022/08/10 07:42:00;;;;;;;6.53;2.90;;;20.00;99.90;;;;;;5054728;28;20138;-28
2022/08/10 07:44:27;;;;;;;3.70;2.30;;;20.20;99.90;;;;;;5053548;28;20033;-27
2022/08/10 07:46:55;;;;;;;4.05;1.90;;;20.30;24.60;;;;;;5054942;28;20110;-27
2022/08/10 07:49:26;;;;;;;3.55;1.92;;;20.30;1.00;;;;;;5054574;28;20049;-27
2022/08/10 07:51:55;;;;;;;3.90;2.20;;;20.40;1.00;;;;;;5053443;28;20103;-27
2022/08/10 07:54:24;;;;;;;3.92;1.85;;;20.50;1.00;;;;;;5054409;28;20493;-27
2022/08/10 07:56:54;;;;;;;12.18;2.75;;;20.60;1.00;;;;;;5052655;28;20045;-28
2022/08/10 07:59:44;;;;;;;4.30;1.92;;;20.70;99.90;;;;;;5053752;28;20115;-27
2022/08/10 08:02:48;;;;;;;5.50;2.53;;;20.80;99.90;;;;;;5052765;28;20103;-28
2022/08/10 08:05:15;;;;;;;4.28;2.20;;;20.90;99.90;;;;;;5053540;28;20553;-27
2022/08/10 08:07:44;;;;;;;4.35;2.40;;;20.90;99.90;;;;;;5053873;28;20495;-27
2022/08/10 08:10:11;;;;;;;4.28;1.90;;;20.90;99.90;;;;;;5047047;28;20053;-27
2022/08/10 08:12:38;;;;;;;5.68;1.60;;;21.00;99.90;;;;;;5034286;28;20121;-28
2022/08/10 08:15:07;;;;;;;4.72;2.00;;;21.10;99.90;;;;;;5034424;28;20045;-27
2022/08/10 08:17:34;;;;;;;5.85;2.28;;;21.20;99.90;;;;;;5033976;28;20049;-28
2022/08/10 08:20:02;;;;;;;4.60;1.80;;;21.20;46.10;;;;;;5036359;28;20378;-27
2022/08/10 08:22:28;;;;;;;4.55;2.17;;;21.30;1.00;;;;;;5054009;28;20049;-28
2022/08/10 08:24:56;;;;;;;4.85;1.92;;;21.40;1.00;;;;;;5053968;28;20045;-28
2022/08/10 08:27:23;;;;;;;5.00;2.47;;;21.40;1.00;;;;;;5051457;28;20399;-28
2022/08/10 08:29:51;;;;;;;3.00;1.92;;;21.50;1.00;;;;;;5053731;28;20432;-28
2022/08/10 08:32:22;;;;;;;6.53;1.98;;;21.60;1.00;;;;;;5052529;28;20045;-28
2022/08/10 08:34:57;;;;;;;5.18;1.67;;;21.70;99.90;;;;;;5054621;28;20052;-28
2022/08/10 08:37:26;;;;;;;5.13;1.85;;;21.80;1.00;;;;;;5052009;28;20065;-29
2022/08/10 08:39:51;;;;;;;3.45;1.85;;;21.90;99.90;;;;;;5047483;28;20053;-28
2022/08/10 08:42:55;;;;;;;4.22;1.95;;;22.00;1.00;;;;;;5053609;28;20057;-28
2022/08/10 08:45:40;;;;;;;5.90;1.70;;;22.10;99.90;;;;;;5048542;28;20138;-29
2022/08/10 08:48:35;;;;;;;5.45;1.55;;;22.30;99.90;;;;;;5052572;28;20045;-28
2022/08/10 08:51:23;;;;;;;3.47;1.67;;;22.40;99.90;;;;;;5025483;28;20139;-28
2022/08/10 08:54:34;;;;;;;3.90;1.52;;;22.40;99.90;;;;;;5042772;28;20059;-28
2022/08/10 08:57:18;;;;;;;3.70;1.83;;;22.50;90.30;;;;;;5041121;28;20406;-28
2022/08/10 09:00:17;;;;;;;6.80;2.10;;;22.60;99.90;;;;;;5053954;28;20138;-28
2022/08/10 09:03:20;;;;;;;7.18;2.10;;;22.80;99.90;;;;;;5035479;28;20481;-28
2022/08/10 09:06:05;;;;;;;;;;;23.00;1.00;;;;;;5034513;28;20057;-28
2022/08/10 09:08:45;;;;;;;5.15;2.20;;;23.30;1.00;;;;;;5033250;28;20367;-28
2022/08/10 09:11:53;;;;;;;6.13;1.90;;;24.60;1.00;;;;;;5035160;28;20500;-28
2022/08/10 09:14:34;;;;;;;3.25;1.45;;;25.60;99.90;;;;;;5023864;28;20551;-28
2022/08/10 09:17:31;;;;;;;4.10;1.80;;;26.40;1.00;;;;;;5032143;28;20050;-28
2022/08/10 09:20:17;;;;;;;4.97;1.38;;;26.90;1.00;;;;;;5033072;28;20053;-29
2022/08/10 09:22:56;;;;;;;3.05;1.60;;;27.50;1.00;;;;;;5058348;28;20045;-28
2022/08/10 09:25:25;;;;;;;6.80;2.00;;;27.80;99.90;;;;;;5051516;28;20488;-28
2022/08/10 09:28:04;;;;;;;5.03;1.58;;;28.20;99.90;;;;;;5053203;28;20057;-28
2022/08/10 09:30:55;;;;;;;3.67;1.50;;;28.40;99.90;;;;;;5053276;28;20091;-29
2022/08/10 09:33:53;;;;;;;2.88;1.42;;;28.70;99.90;;;;;;5052246;28;20047;-29
2022/08/10 09:36:46;;;;;;;5.30;2.10;;;29.00;99.90;;;;;;5052605;28;20486;-28
2022/08/10 09:39:41;;;;;;;6.70;1.88;;;29.40;99.90;;;;;;5053454;28;20494;-28
2022/08/10 09:42:24;;;;;;;3.72;1.58;;;29.70;99.90;;;;;;5053227;28;20048;-28
2022/08/10 09:45:13;;;;;;;2.53;1.30;;;29.60;99.90;;;;;;5052079;28;20120;-28
2022/08/10 09:47:52;;;;;;;5.22;1.33;;;29.70;99.90;;;;;;5052068;28;20041;-28
2022/08/10 09:50:46;;;;;;;5.47;1.42;;;29.90;99.90;;;;;;5052754;28;20504;-28
2022/08/10 09:53:26;;;;;;;4.10;1.50;;;30.10;67.70;;;;;;5052584;28;20041;-29
2022/08/10 09:55:55;;;;;;;4.28;1.38;;;30.30;74.60;;;;;;5053020;28;20053;-28
2022/08/10 09:58:41;;;;;;;5.15;1.50;;;30.20;78.80;;;;;;5053048;28;20044;-29
2022/08/10 10:01:28;;;;;;;2.13;1.23;;;30.40;52.00;;;;;;5056366;28;20049;-28
2022/08/10 10:04:15;;;;;;;6.57;1.75;;;30.70;81.20;;;;;;5055779;28;20052;-29
2022/08/10 10:07:03;;;;;;;3.58;1.55;;;30.70;82.20;;;;;;5056181;28;20530;-29
2022/08/10 10:09:54;;;;;;;18.58;2.00;;;30.90;65.90;;;;;;5055425;28;20063;-29
2022/08/10 10:12:30;;;;;;;5.10;1.48;;;30.60;78.30;;;;;;5056471;28;20052;-29
2022/08/10 10:15:31;;;;;;;3.05;1.15;;;30.50;69.70;;;;;;5055808;28;20041;-28
2022/08/10 10:18:40;;;;;;;3.83;1.10;;;30.60;35.80;;;;;;5047580;28;20053;-28
2022/08/10 10:21:24;;;;;;;3.58;1.23;;;30.60;55.00;;;;;;5056924;28;20045;-29
2022/08/10 10:24:10;;;;;;;7.40;1.50;;;31.00;50.00;;;;;;5056302;28;20479;-29
2022/08/10 10:26:54;;;;;;;6.65;1.95;;;31.00;55.70;;;;;;5055261;28;20052;-29
2022/08/10 10:29:46;;;;;;;5.32;1.92;;;31.30;77.80;;;;;;5055543;28;20098;-29
2022/08/10 10:32:20;;;;;;;6.97;1.48;;;31.20;56.60;;;;;;5056596;28;20060;-27
2022/08/10 10:34:55;;;;;;;2.92;1.50;;;31.40;54.00;;;;;;5056038;28;20033;-27
2022/08/10 10:37:23;;;;;;;2.97;1.23;;;31.60;64.10;;;;;;5054378;28;20102;-27
2022/08/10 10:39:52;;;;;;;5.43;1.52;;;31.80;67.10;;;;;;5055944;28;20053;-27
2022/08/10 10:42:42;;;;;;;12.13;1.58;;;31.70;61.60;;;;;;5055874;28;20044;-27
2022/08/10 10:45:36;;;;;;;3.88;2.33;;;31.80;81.80;;;;;;5055908;28;20045;-28
2022/08/10 10:48:24;;;;;;;3.30;1.13;;;32.10;46.00;;;;;;5054143;28;20041;-27
2022/08/10 10:51:25;;;;;;;2.78;1.20;;;32.20;48.10;;;;;;5054402;28;20487;-27
2022/08/10 10:54:28;;;;;;;7.85;1.42;;;32.10;42.40;;;;;;5056443;28;20102;-28
2022/08/10 10:57:12;;;;;;;2.03;1.17;;;32.40;49.90;;;;;;5054905;28;20064;-27
2022/08/10 11:00:03;;;;;;;4.28;1.02;;;32.70;74.90;;;;;;5055567;28;20087;-27
2022/08/10 11:02:44;;;;;;;4.28;1.48;;;32.70;62.30;;;;;;5055514;28;20089;-27
2022/08/10 11:05:48;;;;;;;3.25;1.40;;;32.20;33.60;;;;;;5055383;28;20059;-27
2022/08/10 11:08:29;;;;;;;2.35;0.93;;;32.40;31.00;;;;;;5054792;28;20041;-27
2022/08/10 11:11:03;;;;;;;1.25;0.85;;;32.50;53.20;;;;;;5054679;28;20049;-27
2022/08/10 11:13:57;;;;;;;5.35;1.00;;;32.60;51.90;;;;;;5054973;28;20052;-28
2022/08/10 11:16:23;;;;;;;5.18;1.35;;;32.10;1.00;;;;;;5055490;28;20053;-27
2022/08/10 11:19:17;;;;;;;5.90;1.60;;;32.00;14.90;;;;;;5053819;28;20124;-27
2022/08/10 11:22:02;;;;;;;2.45;1.05;;;32.30;29.00;;;;;;5055085;28;20052;-27
2022/08/10 11:24:40;;;;;;;5.40;1.10;;;32.60;18.30;;;;;;5055144;28;20099;-27
2022/08/10 11:27:29;;;;;;;4.15;1.00;;;32.70;15.80;;;;;;5054449;28;20048;-27
2022/08/10 11:30:05;;;;;;;3.30;0.70;;;32.90;6.50;;;;;;5053611;28;20049;-28
2022/08/10 11:32:42;;;;;;;3.72;1.23;;;32.90;1.00;;;;;;5055506;28;20084;-28
2022/08/10 11:35:27;;;;;;;4.43;1.40;;;32.90;4.60;;;;;;5055189;28;20051;-27
2022/08/10 11:38:21;;;;;;;2.45;1.20;;;33.20;1.80;;;;;;5054229;28;20056;-28
2022/08/10 11:41:06;;;;;;;4.43;1.67;;;33.00;6.30;;;;;;5052406;28;20048;-28
2022/08/10 11:43:37;;;;;;;3.75;1.60;;;33.00;2.40;;;;;;5054665;28;20115;-27
2022/08/10 11:46:22;;;;;;;7.55;1.27;;;32.80;1.00;;;;;;5055326;28;20076;-27
2022/08/10 11:49:05;;;;;;;2.72;0.90;;;33.00;1.00;;;;;;5054273;28;20378;-27
2022/08/10 11:51:43;;;;;;;1.27;0.80;;;33.30;1.00;;;;;;5053884;28;20055;-28
2022/08/10 11:54:13;;;;;;;6.45;1.00;;;33.50;1.00;;;;;;5054540;28;20048;-27
2022/08/10 11:56:42;;;;;;;1.60;0.60;;;33.40;1.00;;;;;;5055151;28;20133;-28
2022/08/10 12:01:54;;;;;;;2.47;0.63;;;33.50;1.00;;;;;;5052780;28;20095;-28
2022/08/10 12:04:22;;;;;;;3.20;0.80;;;33.30;1.00;;;;;;5034427;28;20080;-27
2022/08/10 12:06:50;;;;;;;3.78;0.70;;;33.30;1.00;;;;;;5034373;28;20491;-27
2022/08/10 12:09:17;;;;;;;5.32;0.90;;;33.20;1.00;;;;;;5035138;28;20045;-28
2022/08/10 12:11:44;;;;;;;3.67;1.23;;;32.90;1.00;;;;;;5043497;28;20119;-27
2022/08/10 12:14:23;;;;;;;6.10;1.73;;;33.00;1.00;;;;;;5054119;28;20041;-28
2022/08/10 12:17:01;;;;;;;4.68;0.77;;;32.90;1.00;;;;;;5070381;28;20057;-27
2022/08/10 12:19:33;;;;;;;6.80;0.57;;;33.00;1.00;;;;;;5054721;28;20399;-28
2022/08/10 12:22:05;;;;;;;4.93;0.77;;;33.10;1.00;;;;;;5053233;28;20045;-27
2022/08/10 12:24:41;;;;;;;1.52;0.70;;;33.00;1.00;;;;;;5054386;28;20391;-27
2022/08/10 12:27:06;;;;;;;2.95;0.47;;;32.60;1.00;;;;;;5053960;28;20060;-27
2022/08/10 12:29:51;;;;;;;2.65;0.70;;;32.50;1.00;;;;;;5053929;28;20049;-28
2022/08/10 12:32:17;;;;;;;2.83;0.80;;;32.50;1.00;;;;;;5052805;28;20491;-28
2022/08/10 12:35:10;;;;;;;0.65;0.45;;;33.10;1.00;;;;;;5054322;28;20056;-29
2022/08/10 12:37:42;;;;;;;1.50;0.60;;;33.00;1.00;;;;;;5053883;28;20053;-27
2022/08/10 12:40:25;;;;;;;;;;;33.00;1.00;;;;;;5054173;28;20045;-27
2022/08/10 12:43:04;;;;;;;2.00;0.60;;;32.60;1.00;;;;;;5052672;28;19927;-28
2022/08/10 12:45:47;;;;;;;2.78;0.90;;;32.80;1.00;;;;;;5053723;28;20086;-27
2022/08/10 12:48:29;;;;;;;2.70;0.65;;;33.00;1.00;;;;;;5053733;28;20113;-27
2022/08/10 12:51:00;;;;;;;3.00;0.50;;;33.10;1.00;;;;;;5053578;28;20053;-27
2022/08/10 12:53:45;;;;;;;3.75;0.88;;;33.10;1.00;;;;;;5052881;28;20051;-28
2022/08/10 12:56:20;;;;;;;3.03;0.90;;;33.10;1.00;;;;;;5054180;28;20125;-27
2022/08/10 12:58:46;;;;;;;1.35;0.60;;;33.20;1.00;;;;;;5054186;28;20087;-28
2022/08/10 13:01:12;;;;;;;4.15;0.80;;;33.00;1.00;;;;;;5053556;28;20049;-27
2022/08/10 13:03:40;;;;;;;2.80;0.80;;;33.00;1.00;;;;;;5068156;28;20056;-28
2022/08/10 13:06:08;;;;;;;3.65;0.90;;;33.10;1.00;;;;;;5053720;28;20507;-27
2022/08/10 13:11:25;;;;;;;3.25;0.73;;;33.10;1.00;;;;;;5052816;28;20061;-27
2022/08/10 13:13:53;;;;;;;5.00;0.90;;;33.10;1.00;;;;;;5053676;28;20045;-28
2022/08/10 13:16:23;;;;;;;2.80;0.70;;;33.10;1.00;;;;;;5052898;28;20068;-28
2022/08/10 13:18:52;;;;;;;4.78;0.73;;;33.30;1.00;;;;;;5052954;28;20059;-27
2022/08/10 13:21:18;;;;;;;2.97;0.93;;;33.40;1.00;;;;;;5052245;28;20131;-27
2022/08/10 13:24:15;;;;;;;2.80;0.70;;;33.50;1.00;;;;;;5054197;28;20041;-27
2022/08/10 13:26:54;;;;;;;4.82;0.85;;;33.50;1.00;;;;;;5052396;28;20048;-27